createdAt,value
2022-08-07T00:00:36.289Z,14.78
2022-08-07T00:03:06.924Z,14.80
2022-08-07T00:05:34.768Z,14.69
2022-08-07T00:08:04.321Z,14.84
2022-08-07T00:10:31.629Z,14.73
2022-08-07T00:13:09.566Z,14.62
2022-08-07T00:15:50.887Z,14.57
2022-08-07T00:18:24.413Z,14.66
2022-08-07T00:20:56.831Z,14.54
2022-08-07T00:23:24.149Z,14.49
2022-08-07T00:25:51.888Z,14.48
2022-08-07T00:28:33.777Z,14.51
2022-08-07T00:31:05.959Z,14.56
2022-08-07T00:33:33.636Z,14.65
2022-08-07T00:35:59.521Z,14.36
2022-08-07T00:38:31.594Z,14.44
2022-08-07T00:40:58.603Z,14.40
2022-08-07T00:43:59.553Z,14.32
2022-08-07T00:46:16.018Z,14.15
2022-08-07T00:48:42.226Z,14.26
2022-08-07T00:51:09.675Z,14.24
2022-08-07T00:53:39.046Z,14.24
2022-08-07T00:56:17.719Z,14.34
2022-08-07T00:58:46.792Z,14.13
2022-08-07T01:01:14.709Z,14.22
2022-08-07T01:03:55.708Z,14.22
2022-08-07T01:06:29.603Z,14.21
2022-08-07T01:08:58.561Z,14.17
2022-08-07T01:12:23.618Z,14.17
2022-08-07T01:14:11.946Z,13.95
2022-08-07T01:16:43.105Z,14.06
2022-08-07T01:19:14.787Z,14.08
2022-08-07T01:21:47.582Z,13.84
2022-08-07T01:24:13.745Z,13.98
2022-08-07T01:26:40.032Z,13.91
2022-08-07T01:29:06.793Z,13.90
2022-08-07T01:31:41.511Z,13.74
2022-08-07T01:34:08.792Z,13.71
2022-08-07T01:36:36.372Z,13.68
2022-08-07T01:39:09.811Z,13.71
2022-08-07T01:41:38.492Z,13.90
2022-08-07T01:44:05.593Z,13.95
2022-08-07T01:46:32.070Z,13.82
2022-08-07T01:48:59.844Z,13.80
2022-08-07T01:52:01.071Z,13.70
2022-08-07T01:54:33.052Z,13.84
2022-08-07T01:58:00.981Z,13.63
2022-08-07T02:00:13.211Z,13.65
2022-08-07T02:03:18.061Z,13.67
2022-08-07T02:05:48.267Z,13.55
2022-08-07T02:08:24.655Z,13.52
2022-08-07T02:10:55.330Z,13.52
2022-08-07T02:14:00.723Z,13.49
2022-08-07T02:16:16.388Z,13.16
2022-08-07T02:18:47.500Z,13.24
2022-08-07T02:21:16.320Z,13.22
2022-08-07T02:23:44.703Z,13.14
2022-08-07T02:26:33.082Z,13.02
2022-08-07T02:29:00.070Z,13.21
2022-08-07T02:31:28.637Z,13.14
2022-08-07T02:34:03.524Z,12.97
2022-08-07T02:36:32.784Z,13.36
2022-08-07T02:39:02.342Z,13.13
2022-08-07T02:41:50.575Z,12.86
2022-08-07T02:44:17.843Z,13.11
2022-08-07T02:46:52.772Z,13.11
2022-08-07T02:49:55.736Z,12.96
2022-08-07T02:52:09.553Z,12.85
2022-08-07T02:54:40.973Z,12.98
2022-08-07T02:57:12.884Z,13.23
2022-08-07T02:59:55.275Z,13.03
2022-08-07T03:02:31.289Z,13.03
2022-08-07T03:05:00.075Z,12.99
2022-08-07T03:07:43.078Z,13.18
2022-08-07T03:10:19.193Z,13.10
2022-08-07T03:12:50.680Z,12.86
2022-08-07T03:15:30.256Z,12.79
2022-08-07T03:18:05.279Z,12.91
2022-08-07T03:20:31.889Z,12.92
2022-08-07T03:22:58.845Z,12.92
2022-08-07T03:25:32.547Z,12.77
2022-08-07T03:28:37.831Z,12.86
2022-08-07T03:31:17.337Z,12.84
2022-08-07T03:33:43.682Z,12.89
2022-08-07T03:36:14.179Z,12.75
2022-08-07T03:38:43.109Z,12.89
2022-08-07T03:41:12.239Z,12.97
2022-08-07T03:43:44.079Z,13.03
2022-08-07T03:46:25.432Z,12.86
2022-08-07T03:49:02.626Z,12.84
2022-08-07T03:51:47.244Z,12.89
2022-08-07T03:54:35.335Z,12.95
2022-08-07T03:57:07.391Z,12.91
2022-08-07T03:59:33.909Z,12.83
2022-08-07T04:02:00.846Z,12.88
2022-08-07T04:04:27.600Z,12.96
2022-08-07T04:07:00.094Z,12.84
2022-08-07T04:09:29.490Z,12.89
2022-08-07T04:12:25.932Z,12.95
2022-08-07T04:14:56.553Z,12.73
2022-08-07T04:17:22.428Z,12.67
2022-08-07T04:19:52.818Z,12.81
2022-08-07T04:22:27.418Z,12.67
2022-08-07T04:24:55.714Z,12.90
2022-08-07T04:27:36.106Z,12.81
2022-08-07T04:30:21.251Z,13.01
2022-08-07T04:32:58.636Z,13.10
2022-08-07T04:35:25.200Z,12.94
2022-08-07T04:38:03.731Z,12.95
2022-08-07T04:40:34.111Z,12.90
2022-08-07T04:43:01.641Z,12.95
2022-08-07T04:45:57.242Z,13.17
2022-08-07T04:48:39.856Z,13.11
2022-08-07T04:51:16.485Z,13.33
2022-08-07T04:54:06.926Z,13.14
2022-08-07T04:58:12.050Z,13.20
2022-08-07T05:00:09.602Z,13.18
2022-08-07T05:02:29.969Z,13.43
2022-08-07T05:05:11.419Z,13.32
2022-08-07T05:08:04.198Z,13.61
2022-08-07T05:10:48.298Z,13.69
2022-08-07T05:14:53.899Z,13.46
2022-08-07T05:16:09.155Z,13.41
2022-08-07T05:18:48.177Z,13.59
2022-08-07T05:21:18.106Z,13.54
2022-08-07T05:24:09.456Z,13.55
2022-08-07T05:26:37.723Z,13.53
2022-08-07T05:29:07.585Z,13.77
2022-08-07T05:31:38.523Z,13.87
2022-08-07T05:34:11.003Z,14.05
2022-08-07T05:36:41.208Z,14.17
2022-08-07T05:40:05.505Z,14.34
2022-08-07T05:42:01.209Z,14.45
2022-08-07T05:44:32.995Z,14.58
2022-08-07T05:47:01.117Z,14.52
2022-08-07T05:49:40.445Z,14.62
2022-08-07T05:52:07.732Z,14.78
2022-08-07T05:54:53.748Z,14.78
2022-08-07T05:57:26.693Z,14.87
2022-08-07T06:00:00.036Z,14.88
2022-08-07T06:02:31.213Z,14.94
2022-08-07T06:05:19.958Z,14.98
2022-08-07T06:08:14.537Z,15.15
2022-08-07T06:10:38.817Z,15.19
2022-08-07T06:13:05.377Z,15.27
2022-08-07T06:15:42.732Z,15.27
2022-08-07T06:18:11.074Z,15.21
2022-08-07T06:20:51.176Z,15.29
2022-08-07T06:24:37.160Z,15.41
2022-08-07T06:26:13.699Z,15.34
2022-08-07T06:28:56.313Z,15.42
2022-08-07T06:31:24.315Z,15.36
2022-08-07T06:34:05.253Z,15.47
2022-08-07T06:36:35.391Z,15.48
2022-08-07T06:40:16.590Z,15.61
2022-08-07T06:42:03.898Z,15.73
2022-08-07T06:44:36.624Z,15.70
2022-08-07T06:47:10.332Z,15.95
2022-08-07T06:49:51.484Z,15.96
2022-08-07T06:52:31.839Z,15.97
2022-08-07T06:55:53.503Z,16.12
2022-08-07T06:58:16.632Z,16.17
2022-08-07T07:00:47.453Z,16.18
2022-08-07T07:03:26.510Z,16.11
2022-08-07T07:06:11.287Z,16.19
2022-08-07T07:08:39.634Z,16.19
2022-08-07T07:11:14.000Z,16.30
2022-08-07T07:14:01.600Z,16.26
2022-08-07T07:16:34.392Z,16.25
2022-08-07T07:19:55.547Z,16.32
2022-08-07T07:22:05.191Z,16.40
2022-08-07T07:24:43.234Z,16.44
2022-08-07T07:27:35.816Z,16.45
2022-08-07T07:30:32.708Z,16.59
2022-08-07T07:33:06.658Z,16.68
2022-08-07T07:35:51.869Z,16.80
2022-08-07T07:38:25.238Z,16.76
2022-08-07T07:40:58.833Z,16.79
2022-08-07T07:44:14.244Z,16.80
2022-08-07T07:46:38.296Z,16.90
2022-08-07T07:50:29.768Z,16.94
2022-08-07T07:51:58.216Z,16.99
2022-08-07T07:54:26.859Z,17.09
2022-08-07T07:56:55.293Z,17.21
2022-08-07T07:59:52.029Z,17.26
2022-08-07T08:02:33.685Z,17.39
2022-08-07T08:05:02.913Z,17.43
2022-08-07T08:07:35.409Z,17.53
2022-08-07T08:10:09.434Z,17.63
2022-08-07T08:12:59.129Z,17.70
2022-08-07T08:15:57.430Z,17.69
2022-08-07T08:18:19.050Z,17.70
2022-08-07T08:20:47.910Z,17.73
2022-08-07T08:23:35.305Z,17.85
2022-08-07T08:26:22.784Z,17.90
2022-08-07T08:28:52.800Z,17.89
2022-08-07T08:31:58.387Z,18.06
2022-08-07T08:34:29.013Z,18.13
2022-08-07T08:36:59.693Z,18.20
2022-08-07T08:39:39.314Z,18.15
2022-08-07T08:42:25.870Z,18.13
2022-08-07T08:45:04.218Z,18.28
2022-08-07T08:47:52.724Z,18.46
2022-08-07T08:50:34.909Z,18.42
2022-08-07T08:53:25.720Z,18.37
2022-08-07T08:56:22.872Z,18.53
2022-08-07T08:59:06.480Z,18.48
2022-08-07T09:01:59.575Z,18.55
2022-08-07T09:04:43.097Z,18.58
2022-08-07T09:07:46.545Z,18.62
2022-08-07T09:10:28.803Z,18.59
2022-08-07T09:13:14.903Z,18.65
2022-08-07T09:16:25.689Z,18.73
2022-08-07T09:19:07.300Z,18.81
2022-08-07T09:22:23.072Z,18.71
2022-08-07T09:25:00.872Z,18.78
2022-08-07T09:27:59.870Z,18.86
2022-08-07T09:30:32.637Z,18.92
2022-08-07T09:33:52.408Z,19.02
2022-08-07T09:36:36.916Z,18.89
2022-08-07T09:39:52.441Z,18.87
2022-08-07T09:42:05.905Z,18.94
2022-08-07T09:47:24.304Z,19.19
2022-08-07T09:48:30.180Z,19.50
2022-08-07T09:52:09.874Z,19.49
2022-08-07T09:54:36.793Z,19.65
2022-08-07T09:57:29.289Z,19.81
2022-08-07T10:00:07.115Z,19.94
2022-08-07T10:03:08.403Z,20.04
2022-08-07T10:06:17.383Z,20.25
2022-08-07T10:09:02.458Z,20.38
2022-08-07T10:12:01.071Z,20.46
2022-08-07T10:15:15.144Z,20.81
2022-08-07T10:18:12.482Z,21.07
2022-08-07T10:21:14.927Z,21.26
2022-08-07T10:24:18.609Z,21.37
2022-08-07T10:27:17.386Z,21.68
2022-08-07T10:30:04.182Z,21.61
2022-08-07T10:33:00.891Z,21.62
2022-08-07T10:35:56.711Z,21.90
2022-08-07T10:38:41.959Z,22.06
2022-08-07T10:41:47.169Z,22.11
2022-08-07T10:44:28.358Z,22.16
2022-08-07T10:47:27.114Z,22.61
2022-08-07T10:50:15.041Z,22.75
2022-08-07T10:52:51.557Z,22.86
2022-08-07T10:55:56.618Z,22.77
2022-08-07T10:58:59.673Z,23.19
2022-08-07T11:01:51.822Z,23.37
2022-08-07T11:04:40.911Z,23.51
2022-08-07T11:07:58.820Z,23.76
2022-08-07T11:10:27.671Z,23.93
2022-08-07T11:13:16.869Z,24.14
2022-08-07T11:16:07.240Z,24.23
2022-08-07T11:18:43.562Z,24.40
2022-08-07T11:21:42.757Z,24.30
2022-08-07T11:24:21.127Z,24.45
2022-08-07T11:27:01.258Z,24.69
2022-08-07T11:29:48.295Z,24.67
2022-08-07T11:32:49.071Z,24.55
2022-08-07T11:35:25.287Z,24.70
2022-08-07T11:38:12.614Z,24.58
2022-08-07T11:40:55.391Z,24.55
2022-08-07T11:43:54.999Z,24.71
2022-08-07T11:46:36.778Z,24.51
2022-08-07T11:49:50.716Z,25.06
2022-08-07T11:52:37.756Z,25.12
2022-08-07T11:56:15.565Z,24.17
2022-08-07T11:58:33.398Z,24.98
2022-08-07T12:01:53.180Z,25.06
2022-08-07T12:04:47.566Z,25.12
2022-08-07T12:07:38.587Z,25.52
2022-08-07T12:10:14.899Z,25.29
2022-08-07T12:12:47.665Z,25.39
2022-08-07T12:15:57.945Z,25.98
2022-08-07T12:18:45.570Z,25.99
2022-08-07T12:22:37.904Z,26.16
2022-08-07T12:24:37.976Z,25.77
2022-08-07T12:27:14.865Z,25.72
2022-08-07T12:29:56.707Z,25.48
2022-08-07T12:32:49.103Z,25.82
2022-08-07T12:35:19.230Z,26.13
2022-08-07T12:38:11.531Z,26.41
2022-08-07T12:40:47.327Z,26.31
2022-08-07T12:44:02.110Z,26.62
2022-08-07T12:46:26.545Z,26.51
2022-08-07T12:49:39.845Z,27.04
2022-08-07T12:52:18.166Z,27.07
2022-08-07T12:55:40.726Z,27.58
2022-08-07T12:58:11.769Z,27.34
2022-08-07T13:01:13.242Z,27.57
2022-08-07T13:04:02.793Z,26.80
2022-08-07T13:07:00.286Z,27.26
2022-08-07T13:10:37.972Z,27.27
2022-08-07T13:12:49.293Z,27.00
2022-08-07T13:15:51.154Z,27.34
2022-08-07T13:18:38.715Z,27.18
2022-08-07T13:21:12.484Z,27.31
2022-08-07T13:24:00.855Z,27.75
2022-08-07T13:26:41.900Z,27.87
2022-08-07T13:29:17.586Z,28.21
2022-08-07T13:32:23.525Z,27.72
2022-08-07T13:35:15.979Z,27.98
2022-08-07T13:37:58.984Z,27.95
2022-08-07T13:40:42.082Z,27.68
2022-08-07T13:43:15.055Z,27.25
2022-08-07T13:46:10.832Z,27.80
2022-08-07T13:48:34.514Z,27.85
2022-08-07T13:51:27.139Z,27.88
2022-08-07T13:54:00.727Z,27.79
2022-08-07T13:56:36.105Z,27.44
2022-08-07T13:59:23.653Z,27.71
2022-08-07T14:02:04.505Z,27.46
2022-08-07T14:04:36.041Z,27.59
2022-08-07T14:07:09.721Z,27.52
2022-08-07T14:10:00.918Z,27.97
2022-08-07T14:12:28.379Z,28.06
2022-08-07T14:15:09.542Z,28.02
2022-08-07T14:18:23.445Z,28.23
2022-08-07T14:20:40.068Z,28.54
2022-08-07T14:23:58.714Z,28.63
2022-08-07T14:26:23.661Z,28.06
2022-08-07T14:29:08.625Z,27.78
2022-08-07T14:31:56.091Z,27.85
2022-08-07T14:34:29.549Z,27.64
2022-08-07T14:37:01.925Z,27.73
2022-08-07T14:40:15.607Z,27.66
2022-08-07T14:42:24.474Z,27.53
2022-08-07T14:44:59.879Z,27.15
2022-08-07T14:47:47.049Z,26.98
2022-08-07T14:50:18.509Z,27.13
2022-08-07T14:52:50.303Z,26.99
2022-08-07T14:55:18.069Z,27.16
2022-08-07T14:57:57.963Z,26.94
2022-08-07T15:03:21.548Z,26.87
2022-08-07T15:06:09.055Z,27.03
2022-08-07T15:08:49.865Z,27.25
2022-08-07T15:14:16.677Z,27.14
2022-08-07T15:16:54.760Z,27.40
2022-08-07T15:22:22.128Z,27.24
2022-08-07T15:28:32.995Z,26.79
2022-08-07T15:30:34.213Z,26.37
2022-08-07T15:33:05.508Z,26.36
2022-08-07T15:38:58.710Z,26.64
2022-08-07T15:42:46.487Z,27.19
2022-08-07T15:44:20.243Z,27.03
2022-08-07T15:46:54.494Z,26.78
2022-08-07T15:50:04.972Z,27.11
2022-08-07T15:52:21.724Z,27.36
2022-08-07T15:55:02.726Z,27.04
2022-08-07T15:57:39.352Z,26.17
2022-08-07T16:00:31.210Z,26.27
2022-08-07T16:03:03.877Z,26.11
2022-08-07T16:05:31.202Z,26.34
2022-08-07T16:08:30.697Z,26.45
2022-08-07T16:11:03.975Z,26.60
2022-08-07T16:14:05.490Z,26.57
2022-08-07T16:16:47.965Z,26.39
2022-08-07T16:19:42.071Z,26.25
2022-08-07T16:22:33.392Z,26.22
2022-08-07T16:25:23.154Z,26.05
2022-08-07T16:30:07.782Z,25.97
2022-08-07T16:31:50.773Z,26.07
2022-08-07T16:34:26.441Z,26.23
2022-08-07T16:37:02.678Z,26.25
2022-08-07T16:39:59.066Z,26.22
2022-08-07T16:43:09.673Z,26.37
2022-08-07T16:46:40.725Z,26.46
2022-08-07T16:50:27.542Z,26.41
2022-08-07T16:52:52.744Z,26.27
2022-08-07T16:55:47.649Z,26.24
2022-08-07T16:59:02.321Z,26.08
2022-08-07T17:01:34.265Z,25.93
2022-08-07T17:04:30.519Z,26.09
2022-08-07T17:07:08.782Z,26.43
2022-08-07T17:10:06.885Z,26.51
2022-08-07T17:12:44.416Z,25.83
2022-08-07T17:15:20.151Z,26.04
2022-08-07T17:17:47.517Z,25.56
2022-08-07T17:20:30.778Z,25.18
2022-08-07T17:23:16.066Z,24.81
2022-08-07T17:26:23.363Z,24.91
2022-08-07T17:29:06.792Z,24.86
2022-08-07T17:32:03.268Z,24.73
2022-08-07T17:35:33.207Z,24.40
2022-08-07T17:38:05.736Z,24.11
2022-08-07T17:40:50.635Z,24.22
2022-08-07T17:44:01.571Z,24.27
2022-08-07T17:46:41.265Z,24.46
2022-08-07T17:49:22.894Z,24.36
2022-08-07T17:52:01.307Z,24.34
2022-08-07T17:54:54.434Z,24.03
2022-08-07T17:57:59.069Z,23.98
2022-08-07T18:00:34.078Z,24.02
2022-08-07T18:04:03.826Z,23.78
2022-08-07T18:06:38.706Z,23.83
2022-08-07T18:09:06.619Z,23.46
2022-08-07T18:12:27.801Z,23.47
2022-08-07T18:15:08.852Z,23.18
2022-08-07T18:18:45.173Z,23.15
2022-08-07T18:21:38.297Z,22.69
2022-08-07T18:24:33.704Z,22.60
2022-08-07T18:27:21.076Z,22.58
2022-08-07T18:30:30.797Z,22.41
2022-08-07T18:33:25.047Z,22.39
2022-08-07T18:36:13.795Z,22.14
2022-08-07T18:38:57.756Z,22.20
2022-08-07T18:42:06.646Z,22.12
2022-08-07T18:45:44.583Z,21.91
2022-08-07T18:48:02.716Z,21.83
2022-08-07T18:50:47.219Z,21.67
2022-08-07T18:53:39.827Z,21.63
2022-08-07T18:56:33.047Z,21.57
2022-08-07T18:59:46.712Z,21.52
2022-08-07T19:02:39.658Z,21.47
2022-08-07T19:05:22.215Z,21.39
2022-08-07T19:07:58.947Z,21.45
2022-08-07T19:10:49.605Z,21.27
2022-08-07T19:13:44.410Z,21.20
2022-08-07T19:17:08.264Z,21.11
2022-08-07T19:20:00.385Z,20.98
2022-08-07T19:22:39.916Z,21.04
2022-08-07T19:26:21.987Z,20.95
2022-08-07T19:28:57.178Z,20.86
2022-08-07T19:31:37.194Z,20.72
2022-08-07T19:33:52.240Z,20.71
2022-08-07T19:36:28.044Z,20.67
2022-08-07T19:38:58.346Z,20.71
2022-08-07T19:41:44.654Z,20.57
2022-08-07T19:44:21.262Z,20.43
2022-08-07T19:46:55.757Z,20.22
2022-08-07T19:49:57.702Z,20.30
2022-08-07T19:52:18.430Z,20.21
2022-08-07T19:54:56.541Z,20.16
2022-08-07T19:58:00.143Z,20.18
2022-08-07T20:00:29.301Z,19.84
2022-08-07T20:03:01.052Z,20.01
2022-08-07T20:05:31.448Z,20.11
2022-08-07T20:08:22.961Z,20.17
2022-08-07T20:11:01.720Z,20.15
2022-08-07T20:13:41.889Z,19.99
2022-08-07T20:16:15.753Z,19.92
2022-08-07T20:18:59.181Z,19.79
2022-08-07T20:21:25.734Z,19.70
2022-08-07T20:24:00.456Z,19.73
2022-08-07T20:26:38.885Z,19.76
2022-08-07T20:29:47.163Z,19.75
2022-08-07T20:32:02.375Z,19.80
2022-08-07T20:34:49.451Z,19.70
2022-08-07T20:37:21.199Z,19.73
2022-08-07T20:40:02.773Z,19.67
2022-08-07T20:42:32.724Z,19.70
2022-08-07T20:45:00.819Z,19.73
2022-08-07T20:47:55.244Z,19.66
2022-08-07T20:50:20.586Z,19.58
2022-08-07T20:52:51.196Z,19.52
2022-08-07T20:55:23.579Z,19.63
2022-08-07T20:58:02.579Z,19.64
2022-08-07T21:00:43.646Z,19.50
2022-08-07T21:03:13.714Z,19.59
2022-08-07T21:06:22.342Z,19.41
2022-08-07T21:09:02.327Z,19.39
2022-08-07T21:11:46.063Z,19.39
2022-08-07T21:14:34.040Z,19.46
2022-08-07T21:18:00.602Z,19.42
2022-08-07T21:20:04.962Z,19.42
2022-08-07T21:22:38.865Z,19.17
2022-08-07T21:25:14.107Z,19.15
2022-08-07T21:28:10.136Z,19.13
2022-08-07T21:30:48.873Z,19.06
2022-08-07T21:33:41.392Z,19.01
2022-08-07T21:36:31.365Z,19.06
2022-08-07T21:39:45.378Z,19.03
2022-08-07T21:42:42.593Z,18.96
2022-08-07T21:46:09.279Z,18.92
2022-08-07T21:48:56.427Z,19.01
2022-08-07T21:51:51.178Z,18.95
2022-08-07T21:55:00.063Z,18.89
2022-08-07T21:57:52.892Z,18.87
2022-08-07T22:00:24.850Z,18.86
2022-08-07T22:03:08.062Z,18.85
2022-08-07T22:05:54.525Z,18.74
2022-08-07T22:08:25.707Z,18.59
2022-08-07T22:10:58.729Z,18.47
2022-08-07T22:13:51.037Z,18.39
2022-08-07T22:16:42.880Z,18.53
2022-08-07T22:19:17.716Z,18.30
2022-08-07T22:22:27.781Z,18.35
2022-08-07T22:25:02.151Z,18.43
2022-08-07T22:28:29.362Z,18.36
2022-08-07T22:30:26.533Z,18.19
2022-08-07T22:33:03.121Z,18.07
2022-08-07T22:35:40.867Z,18.10
2022-08-07T22:38:24.056Z,18.16
2022-08-07T22:41:07.755Z,18.36
2022-08-07T22:43:50.613Z,18.36
2022-08-07T22:47:03.472Z,18.24
2022-08-07T22:49:56.631Z,18.05
2022-08-07T22:52:47.433Z,17.98
2022-08-07T22:55:30.160Z,18.16
2022-08-07T22:58:33.474Z,18.10
2022-08-07T23:01:50.026Z,18.09
2022-08-07T23:04:31.925Z,18.06
2022-08-07T23:07:41.764Z,18.00
2022-08-07T23:10:37.820Z,17.95
2022-08-07T23:13:48.691Z,18.03
2022-08-07T23:16:54.615Z,18.02
2022-08-07T23:20:08.190Z,17.93
2022-08-07T23:22:49.091Z,17.82
2022-08-07T23:25:31.741Z,17.84
2022-08-07T23:28:20.491Z,17.66
2022-08-07T23:31:11.732Z,17.75
2022-08-07T23:34:35.499Z,17.73
2022-08-07T23:37:19.928Z,17.82
2022-08-07T23:40:04.604Z,17.79
2022-08-07T23:42:53.323Z,17.76
2022-08-07T23:46:03.545Z,17.63
2022-08-07T23:48:58.712Z,17.72
2022-08-07T23:53:00.899Z,17.75
2022-08-07T23:54:35.832Z,17.70
2022-08-07T23:57:27.721Z,17.74
